• Join FlightAware (Why Join?)
  • Login
  • US Flag GB Flag 
18:12 EST


 

Airport Tracker/Info


-or-


 

Live Flight TrackerFlight Track Log ✈ USC105 ✈ 15-Apr-2013 ✈ KBKL - KYIP

Flight Track Log - Related Links

Times and Time Zones

All times are in EDT time to prevent confusion due to time zone crossing. See the USC105 flight status page for this flight to view local times or setup timezone preferences in your user account.

Time Position Orientation Groundspeed Altitude Reporting Facility
EDT Latitude Longitude Course Direction KTS MPH feet Rate Location/Type
23:15 41.5556 -81.7681 290° West 139 160 2,600  Level Cleveland Center
23:16 41.5678 -81.8125 290° West 131 151 3,600 900 Climbing Cleveland Center
23:17 41.5881 -81.8575 301° West 126 145 4,600 960 Climbing Cleveland Center
23:18 41.6042 -81.8994 297° West 119 137 5,700 660 Climbing Cleveland Center
23:20 41.6225 -81.9497 296° West 149 171 6,000 120 Climbing Cleveland Center
23:21 41.6447 -81.9947 303° West 156 180 6,000  Level Cleveland Center
23:22 41.6650 -82.0481 297° West 158 182 6,000  Level Cleveland Center
23:23 41.6872 -82.1042 298° West 170 196 6,000  Level Cleveland Center
23:24 41.7094 -82.1603 298° West 169 194 6,000  Level Cleveland Center
23:25 41.7275 -82.2108 296° West 169 194 6,000  Level Cleveland Center
23:26 41.7494 -82.2669 298° West 168 193 6,000  Level Cleveland Center
23:27 41.7736 -82.3317 297° West 170 196 6,000 -60 Level Cleveland Center
23:28 41.8017 -82.3964 300° West 170 196 5,900 -120 Descending Cleveland Center
23:28 41.8078 -82.4106 300° West 169 194 5,900  Level Cleveland Center
23:29 41.8319 -82.4697 299° West 168 193 5,900  Level Cleveland Center
23:30 41.8539 -82.5233 299° West 170 196 5,900  Level Cleveland Center
23:31 41.8739 -82.5797 295° West 170 196 5,900  Level Cleveland Center
23:32 41.8997 -82.6447 298° West 171 197 5,900  Level Cleveland Center
23:33 41.9278 -82.6986 305° West 176 203 5,900 -300 Level Cleveland Center
23:34 41.9539 -82.7553 302° West 180 207 5,400 -480 Descending Cleveland Center
23:35 41.9922 -82.8239 307° West 200 230 4,900 -240 Descending Cleveland Center
23:36 42.0203 -82.8836 302° West 186 214 4,900  Level Cleveland Center
23:37 42.0483 -82.9347 306° West 178 205 4,900  Level Cleveland Center
23:38 42.0764 -82.9947 302° West 181 208 4,900  Level Cleveland Center
23:39 42.1044 -83.0489 305° West 182 209 4,900  Level Cleveland Center
23:40 42.1303 -83.1086 300° West 184 212 4,900 60 Level Cleveland Center
23:41 42.1456 -83.1317 312° West 183 211 5,000  Climbing FAA TRACON SMA TRACON (SMA)
23:41 42.1567 -83.1533 305° West 183 211 4,900 -180 Descending FAA TRACON SMA TRACON (SMA)
23:42 42.1653 -83.1706 304° West 182 209 4,900  Level FAA TRACON SMA TRACON (SMA)
23:42 42.1736 -83.1878 303° West 179 206 4,900  Level FAA TRACON SMA TRACON (SMA)
23:42 42.1842 -83.2086 304° West 177 204 4,900  Level FAA TRACON SMA TRACON (SMA)
23:43 42.1922 -83.2247 304° West 171 197 4,900  Level FAA TRACON SMA TRACON (SMA)
23:43 42.2000 -83.2406 304° West 166 191 4,900  Level FAA TRACON SMA TRACON (SMA)
23:43 42.2094 -83.2589 305° West 159 183 4,900  Level FAA TRACON SMA TRACON (SMA)
23:44 42.2164 -83.2733 303° West 152 175 4,900  Level FAA TRACON SMA TRACON (SMA)
23:44 42.2250 -83.2908 304° West 146 168 4,900  Level FAA TRACON SMA TRACON (SMA)
23:44 42.2319 -83.3039 306° West 144 166 4,900  Level FAA TRACON SMA TRACON (SMA)
23:45 42.2400 -83.3206 303° West 139 160 4,900  Level FAA TRACON SMA TRACON (SMA)
23:45 42.2461 -83.3336 302° West 137 158 4,900 -300 Level FAA TRACON SMA TRACON (SMA)
23:45 42.2536 -83.3486 304° West 139 160 4,700 -780 Descending FAA TRACON SMA TRACON (SMA)
23:46 42.2606 -83.3625 304° West 159 183 4,400 -900 Descending FAA TRACON SMA TRACON (SMA)
23:46 42.2711 -83.3822 306° West 169 194 4,100 -900 Descending FAA TRACON SMA TRACON (SMA)
23:46 42.2797 -83.3964 309° West 159 183 3,800 -1,380 Descending FAA TRACON SMA TRACON (SMA)
23:47 42.2903 -83.4142 309° West 159 183 3,200 -1,680 Descending FAA TRACON SMA TRACON (SMA)
23:47 42.2992 -83.4289 309° West 163 188 2,700 -1,260 Descending FAA TRACON SMA TRACON (SMA)
23:47 42.2981 -83.4442 264° West 129 148 2,400 -780 Descending FAA TRACON SMA TRACON (SMA)
23:48 42.2906 -83.4558 229° Southwest 100 115 2,200 -480 Descending FAA TRACON SMA TRACON (SMA)
23:48 42.2850 -83.4639 227° Southwest 93 107 2,100 -480 Descending FAA TRACON SMA TRACON (SMA)
23:48 42.2792 -83.4714 224° Southwest 94 108 1,900 -780 Descending FAA TRACON SMA TRACON (SMA)
23:49 42.2725 -83.4806 225° Southwest 89 102 1,600 -780 Descending FAA TRACON SMA TRACON (SMA)
23:49 42.2669 -83.4878 224° Southwest 92 106 1,400 -480 Descending FAA TRACON SMA TRACON (SMA)
23:49 42.2611 -83.4964 228° Southwest 98 113 1,300 -480 Descending FAA TRACON SMA TRACON (SMA)
23:50 42.2536 -83.5069 226° Southwest 100 115 1,100 -720 Descending FAA TRACON SMA TRACON (SMA)
23:50 42.2461 -83.5167 224° Southwest 99 114 800 -360 Descending FAA TRACON SMA TRACON (SMA)
23:51 42.2461 -83.5167 66° East 99 114 800  Level FAA TRACON SMA TRACON (SMA)
23:53 42.2333 -83.5167 North  Level FlightAware Approximate